Time;durP1;ratioP1;P1;durP2;ratioP2;P2;SDS_P1;SDS_P2;PMS_P1;PMS_P2;Temp;Humidity;BMP_temperature;BMP_pressure;BME280_temperature;BME280_humidity;BME280_pressure;Samples;Min_cycle;Max_cycle;Signal;HPM_P1;HPM_P2
2024/01/21 00:01:46;;;;;;;40.50;21.90;;;;;;;;;;6216000;23;20474;-69
2024/01/21 00:04:12;;;;;;;58.60;28.00;;;;;;;;;;6215342;23;20367;-69
2024/01/21 00:06:38;;;;;;;24.53;14.50;;;;;;;;;;6213703;23;20429;-69
2024/01/21 00:09:04;;;;;;;28.33;16.20;;;;;;;;;;6215282;23;20420;-70
2024/01/21 00:11:30;;;;;;;27.37;16.10;;;;;;;;;;6215292;23;20375;-69
2024/01/21 00:13:56;;;;;;;24.97;13.93;;;;;;;;;;6215160;23;20375;-69
2024/01/21 00:16:22;;;;;;;30.07;16.43;;;;;;;;;;6215162;23;20499;-70
2024/01/21 00:18:48;;;;;;;30.00;17.13;;;;;;;;;;6215138;23;20379;-69
2024/01/21 00:21:14;;;;;;;35.20;19.17;;;;;;;;;;6215652;23;20470;-70
2024/01/21 00:23:40;;;;;;;38.93;18.20;;;;;;;;;;6215237;23;20445;-69
2024/01/21 00:26:06;;;;;;;32.80;17.40;;;;;;;;;;6215125;23;20389;-69
2024/01/21 00:28:32;;;;;;;33.50;18.50;;;;;;;;;;6217432;23;20398;-69
2024/01/21 00:30:58;;;;;;;34.13;17.80;;;;;;;;;;6217108;23;20875;-69
2024/01/21 00:33:24;;;;;;;34.33;18.27;;;;;;;;;;6217106;23;20379;-69
2024/01/21 00:35:50;;;;;;;30.77;17.80;;;;;;;;;;6216861;23;20427;-69
2024/01/21 00:38:15;;;;;;;31.17;17.53;;;;;;;;;;6215438;23;20875;-69
2024/01/21 00:40:41;;;;;;;25.33;15.10;;;;;;;;;;6217558;23;20383;-69
2024/01/21 00:43:07;;;;;;;23.33;14.50;;;;;;;;;;6217621;23;20379;-68
2024/01/21 00:45:33;;;;;;;25.23;14.10;;;;;;;;;;6216957;23;20864;-69
2024/01/21 00:47:59;;;;;;;26.80;15.37;;;;;;;;;;6216855;23;20407;-69
2024/01/21 00:50:26;;;;;;;21.67;14.50;;;;;;;;;;6216879;23;20390;-69
2024/01/21 00:52:52;;;;;;;20.17;13.70;;;;;;;;;;6217258;23;20378;-69
2024/01/21 00:55:19;;;;;;;25.50;14.47;;;;;;;;;;6216829;23;20460;-69
2024/01/21 00:57:45;;;;;;;16.70;13.17;;;;;;;;;;6217285;23;20386;-69
2024/01/21 01:00:11;;;;;;;19.60;13.07;;;;;;;;;;6216426;23;20462;-69
2024/01/21 01:02:37;;;;;;;20.23;11.90;;;;;;;;;;6216863;23;20382;-69
2024/01/21 01:05:03;;;;;;;17.77;12.33;;;;;;;;;;6217103;23;20703;-69
2024/01/21 01:07:29;;;;;;;22.43;13.47;;;;;;;;;;6215161;23;20464;-69
2024/01/21 01:09:55;;;;;;;24.37;14.13;;;;;;;;;;6216780;23;20372;-69
2024/01/21 01:12:21;;;;;;;21.80;14.13;;;;;;;;;;6216939;23;20470;-69
2024/01/21 01:14:47;;;;;;;25.83;14.87;;;;;;;;;;6216676;23;20891;-69
2024/01/21 01:17:13;;;;;;;21.23;12.97;;;;;;;;;;6217385;23;20769;-69
2024/01/21 01:19:39;;;;;;;25.17;14.20;;;;;;;;;;6217313;23;20380;-69
2024/01/21 01:22:05;;;;;;;23.50;14.43;;;;;;;;;;6216957;23;20705;-69
2024/01/21 01:24:31;;;;;;;22.23;13.83;;;;;;;;;;6215086;23;20824;-69
2024/01/21 01:26:57;;;;;;;20.40;13.63;;;;;;;;;;6217261;23;20829;-68
2024/01/21 01:29:23;;;;;;;21.30;14.03;;;;;;;;;;6216587;23;20705;-69
2024/01/21 01:31:49;;;;;;;17.17;12.43;;;;;;;;;;6216930;23;20791;-69
2024/01/21 01:34:15;;;;;;;21.67;13.40;;;;;;;;;;6216409;23;20376;-70
2024/01/21 01:36:41;;;;;;;19.60;13.03;;;;;;;;;;6216376;23;20434;-69
2024/01/21 01:39:07;;;;;;;20.27;13.43;;;;;;;;;;6214849;23;20387;-69
2024/01/21 01:41:33;;;;;;;18.70;13.80;;;;;;;;;;6216830;23;20406;-69
2024/01/21 01:43:59;;;;;;;20.60;14.00;;;;;;;;;;6216713;23;20387;-69
2024/01/21 01:46:25;;;;;;;20.73;12.97;;;;;;;;;;6216964;23;20437;-69
2024/01/21 01:48:51;;;;;;;21.60;13.13;;;;;;;;;;6217131;23;20449;-69
2024/01/21 01:51:17;;;;;;;21.57;12.90;;;;;;;;;;6216493;23;20864;-69
2024/01/21 01:53:43;;;;;;;22.57;13.83;;;;;;;;;;6216328;23;20375;-69
2024/01/21 01:56:09;;;;;;;22.30;14.10;;;;;;;;;;6216107;23;20943;-69
2024/01/21 01:58:36;;;;;;;23.47;13.23;;;;;;;;;;6216204;23;20775;-69
2024/01/21 02:01:02;;;;;;;20.47;14.30;;;;;;;;;;6216081;23;20434;-69
2024/01/21 02:03:28;;;;;;;22.30;14.73;;;;;;;;;;6216408;23;20834;-69
2024/01/21 02:05:54;;;;;;;18.63;13.10;;;;;;;;;;6216507;23;20390;-69
2024/01/21 02:08:20;;;;;;;19.67;13.53;;;;;;;;;;6214624;23;20388;-69
2024/01/21 02:10:46;;;;;;;18.87;12.10;;;;;;;;;;6216244;23;20838;-69
2024/01/21 02:13:12;;;;;;;22.17;13.70;;;;;;;;;;6216466;23;20888;-69
2024/01/21 02:15:38;;;;;;;19.17;13.80;;;;;;;;;;6216112;23;20442;-69
2024/01/21 02:18:05;;;;;;;18.60;12.47;;;;;;;;;;6216852;23;20399;-69
2024/01/21 02:20:31;;;;;;;19.67;12.50;;;;;;;;;;6216048;23;20366;-69
2024/01/21 02:22:59;;;;;;;17.50;12.53;;;;;;;;;;6215962;23;20375;-70
2024/01/21 02:25:25;;;;;;;16.77;11.60;;;;;;;;;;6215937;23;20386;-69
2024/01/21 02:27:51;;;;;;;15.07;11.47;;;;;;;;;;6215978;23;20371;-69
2024/01/21 02:30:17;;;;;;;17.57;11.70;;;;;;;;;;6216269;23;20868;-69
2024/01/21 02:32:43;;;;;;;17.70;12.30;;;;;;;;;;6216344;23;20410;-69
2024/01/21 02:35:09;;;;;;;13.80;9.80;;;;;;;;;;6216074;23;20736;-69
2024/01/21 02:37:35;;;;;;;15.43;12.30;;;;;;;;;;6216238;23;20690;-69
2024/01/21 02:40:01;;;;;;;14.70;11.23;;;;;;;;;;6215875;23;20485;-69
2024/01/21 02:42:27;;;;;;;16.60;11.27;;;;;;;;;;6215767;23;20478;-69
2024/01/21 02:44:54;;;;;;;14.33;10.10;;;;;;;;;;6216026;23;20460;-69
2024/01/21 02:47:24;;;;;;;17.03;12.10;;;;;;;;;;6215664;23;20384;-69
2024/01/21 02:49:50;;;;;;;15.07;10.60;;;;;;;;;;6215795;23;20411;-69
2024/01/21 02:52:16;;;;;;;13.73;10.93;;;;;;;;;;6215655;23;20391;-69
2024/01/21 02:54:42;;;;;;;20.17;13.30;;;;;;;;;;6216042;23;20372;-69
2024/01/21 02:57:08;;;;;;;22.00;12.87;;;;;;;;;;6213952;23;20576;-69
2024/01/21 02:59:34;;;;;;;20.37;13.13;;;;;;;;;;6215368;23;20427;-69
2024/01/21 03:02:00;;;;;;;22.67;12.60;;;;;;;;;;6214071;23;20402;-69
2024/01/21 03:04:26;;;;;;;28.10;14.83;;;;;;;;;;6215550;23;20679;-69
2024/01/21 03:06:52;;;;;;;22.17;12.73;;;;;;;;;;6215449;23;20392;-69
2024/01/21 03:09:17;;;;;;;28.60;14.80;;;;;;;;;;6215721;23;20418;-69
2024/01/21 03:11:43;;;;;;;18.77;11.57;;;;;;;;;;6215871;23;20379;-69
2024/01/21 03:14:09;;;;;;;27.27;15.63;;;;;;;;;;6215775;23;20386;-69
2024/01/21 03:16:35;;;;;;;37.40;17.57;;;;;;;;;;6215812;23;20880;-69
2024/01/21 03:19:02;;;;;;;12.03;9.60;;;;;;;;;;6215969;23;20914;-69
2024/01/21 03:21:28;;;;;;;16.90;11.40;;;;;;;;;;6215803;23;20383;-69
2024/01/21 03:23:54;;;;;;;14.20;9.87;;;;;;;;;;6215913;23;20404;-69
2024/01/21 03:26:20;;;;;;;13.43;10.67;;;;;;;;;;6215756;23;20386;-70
2024/01/21 03:28:46;;;;;;;37.50;20.33;;;;;;;;;;6215760;23;20372;-69
2024/01/21 03:31:12;;;;;;;20.10;11.63;;;;;;;;;;6215426;23;20723;-69
2024/01/21 03:33:38;;;;;;;37.17;18.60;;;;;;;;;;6215330;23;20379;-69
2024/01/21 03:36:04;;;;;;;30.00;15.23;;;;;;;;;;6215718;23;20419;-69
2024/01/21 03:38:30;;;;;;;13.30;9.80;;;;;;;;;;6215838;23;20391;-69
2024/01/21 03:40:56;;;;;;;30.40;16.23;;;;;;;;;;6215400;23;20903;-69
2024/01/21 03:43:22;;;;;;;19.23;10.43;;;;;;;;;;6215301;23;20388;-70
2024/01/21 03:45:48;;;;;;;89.27;33.23;;;;;;;;;;6215658;23;20371;-69
2024/01/21 03:48:14;;;;;;;35.83;15.60;;;;;;;;;;6215768;23;20382;-69
2024/01/21 03:50:40;;;;;;;48.83;19.20;;;;;;;;;;6215405;23;20371;-69
2024/01/21 03:53:06;;;;;;;20.63;11.60;;;;;;;;;;6215720;23;20386;-69
2024/01/21 03:55:32;;;;;;;37.43;16.43;;;;;;;;;;6215135;23;20434;-69
2024/01/21 03:57:58;;;;;;;13.70;10.97;;;;;;;;;;6215290;23;20375;-69
2024/01/21 04:00:24;;;;;;;12.27;9.67;;;;;;;;;;6214891;23;20434;-69
2024/01/21 04:02:50;;;;;;;13.67;10.63;;;;;;;;;;6217027;23;20375;-69
2024/01/21 04:05:16;;;;;;;13.63;9.73;;;;;;;;;;6217305;23;20398;-69
2024/01/21 04:07:42;;;;;;;45.67;20.37;;;;;;;;;;6217300;23;20660;-69
2024/01/21 04:10:09;;;;;;;20.43;12.63;;;;;;;;;;6217282;23;20442;-69
2024/01/21 04:12:35;;;;;;;15.93;9.73;;;;;;;;;;6217250;23;20845;-69
2024/01/21 04:15:01;;;;;;;20.57;12.97;;;;;;;;;;6216140;23;20473;-69
2024/01/21 04:17:28;;;;;;;24.30;13.97;;;;;;;;;;6217239;23;20395;-69
2024/01/21 04:19:53;;;;;;;12.93;9.17;;;;;;;;;;6217285;23;20371;-69
2024/01/21 04:22:21;;;;;;;19.40;11.30;;;;;;;;;;6217118;23;20379;-69
2024/01/21 04:24:47;;;;;;;16.70;11.87;;;;;;;;;;6217064;23;20761;-69
2024/01/21 04:27:13;;;;;;;18.00;9.77;;;;;;;;;;6217522;23;20414;-69
2024/01/21 04:29:39;;;;;;;15.30;9.57;;;;;;;;;;6217687;23;20387;-69
2024/01/21 04:32:06;;;;;;;15.70;10.50;;;;;;;;;;6217380;23;20940;-69
2024/01/21 04:34:32;;;;;;;13.70;9.77;;;;;;;;;;6216999;23;20381;-69
2024/01/21 04:36:58;;;;;;;10.73;9.37;;;;;;;;;;6217017;23;20445;-69
2024/01/21 04:39:24;;;;;;;12.67;9.13;;;;;;;;;;6217072;23;20372;-69
2024/01/21 04:41:50;;;;;;;14.90;9.97;;;;;;;;;;6191274;23;20455;-69
2024/01/21 04:44:16;;;;;;;12.30;9.53;;;;;;;;;;6217260;23;20371;-69
2024/01/21 04:46:42;;;;;;;16.67;11.90;;;;;;;;;;6217033;23;20466;-69
2024/01/21 04:49:08;;;;;;;20.10;12.70;;;;;;;;;;6216938;23;20379;-69
2024/01/21 04:51:34;;;;;;;18.00;12.27;;;;;;;;;;6216962;23;21020;-69
2024/01/21 04:54:00;;;;;;;14.77;11.10;;;;;;;;;;6217193;23;20379;-70
2024/01/21 04:56:26;;;;;;;19.97;11.97;;;;;;;;;;6217082;23;20434;-69
2024/01/21 04:58:52;;;;;;;18.60;11.63;;;;;;;;;;6216838;23;20379;-69
2024/01/21 05:01:18;;;;;;;16.40;10.30;;;;;;;;;;6216782;23;20386;-69
2024/01/21 05:03:44;;;;;;;17.37;11.60;;;;;;;;;;6217093;23;20387;-69
2024/01/21 05:06:10;;;;;;;16.67;12.07;;;;;;;;;;6216595;23;20367;-69
2024/01/21 05:08:35;;;;;;;15.27;9.80;;;;;;;;;;6217094;23;20383;-69
2024/01/21 05:11:01;;;;;;;18.07;11.67;;;;;;;;;;6216714;23;20883;-69
2024/01/21 05:13:27;;;;;;;14.60;10.80;;;;;;;;;;6216465;23;20860;-69
2024/01/21 05:15:53;;;;;;;16.57;11.37;;;;;;;;;;6217196;23;20430;-69
2024/01/21 05:18:20;;;;;;;21.57;12.60;;;;;;;;;;6216696;23;20768;-69
2024/01/21 05:20:46;;;;;;;15.10;10.37;;;;;;;;;;6216648;23;20383;-69
2024/01/21 05:23:12;;;;;;;13.83;10.00;;;;;;;;;;6216943;23;20382;-69
2024/01/21 05:25:38;;;;;;;11.57;10.07;;;;;;;;;;6216863;23;20384;-69
2024/01/21 05:28:04;;;;;;;11.87;9.53;;;;;;;;;;6216919;23;20386;-69
2024/01/21 05:30:30;;;;;;;12.47;9.63;;;;;;;;;;6216484;23;20379;-69
2024/01/21 05:32:56;;;;;;;12.17;9.67;;;;;;;;;;6216831;23;20377;-69
2024/01/21 05:35:22;;;;;;;14.33;9.80;;;;;;;;;;6216342;23;20445;-69
2024/01/21 05:37:48;;;;;;;12.23;9.10;;;;;;;;;;6216859;23;20391;-69
2024/01/21 05:40:14;;;;;;;12.07;8.90;;;;;;;;;;6216559;23;20873;-69
2024/01/21 05:42:41;;;;;;;18.80;12.70;;;;;;;;;;6216402;23;20376;-69
2024/01/21 05:45:07;;;;;;;49.90;21.53;;;;;;;;;;6216240;23;20907;-69
2024/01/21 05:47:33;;;;;;;35.40;16.33;;;;;;;;;;6216442;23;20433;-69
2024/01/21 05:49:59;;;;;;;21.80;13.10;;;;;;;;;;6216401;23;20372;-69
2024/01/21 05:52:25;;;;;;;21.60;11.60;;;;;;;;;;6216601;23;20680;-69
2024/01/21 05:54:51;;;;;;;22.23;12.83;;;;;;;;;;6217026;23;20378;-69
2024/01/21 05:57:17;;;;;;;19.70;12.43;;;;;;;;;;6216282;23;20434;-69
2024/01/21 05:59:43;;;;;;;25.37;11.60;;;;;;;;;;6216179;23;20426;-69
2024/01/21 06:02:10;;;;;;;16.73;11.73;;;;;;;;;;6216153;23;20375;-69
2024/01/21 06:04:36;;;;;;;29.70;15.00;;;;;;;;;;6216202;23;20367;-69
2024/01/21 06:07:02;;;;;;;27.20;14.17;;;;;;;;;;6217121;23;20379;-69
2024/01/21 06:09:28;;;;;;;20.33;13.13;;;;;;;;;;6216902;23;20432;-69
2024/01/21 06:11:54;;;;;;;23.67;13.47;;;;;;;;;;6216490;23;20505;-70
2024/01/21 06:14:20;;;;;;;33.83;18.30;;;;;;;;;;6216699;23;20904;-70
2024/01/21 06:16:46;;;;;;;25.50;15.87;;;;;;;;;;6215978;23;20798;-70
2024/01/21 06:19:12;;;;;;;15.73;10.60;;;;;;;;;;6216100;23;20374;-70
2024/01/21 06:21:44;;;;;;;12.73;9.47;;;;;;;;;;6216338;23;20428;-70
2024/01/21 06:24:11;;;;;;;11.20;8.97;;;;;;;;;;6216026;23;20417;-69
2024/01/21 06:26:37;;;;;;;16.27;11.47;;;;;;;;;;6216313;23;20457;-70
2024/01/21 06:29:04;;;;;;;15.73;11.30;;;;;;;;;;6216351;23;20375;-70
2024/01/21 06:31:30;;;;;;;15.73;10.63;;;;;;;;;;6216076;23;20375;-70
2024/01/21 06:33:56;;;;;;;15.27;10.57;;;;;;;;;;6215884;23;20454;-70
2024/01/21 06:36:25;;;;;;;11.97;8.30;;;;;;;;;;6216126;23;20469;-70
2024/01/21 06:38:51;;;;;;;15.63;10.47;;;;;;;;;;6215913;23;20857;-70
2024/01/21 06:41:17;;;;;;;9.60;8.70;;;;;;;;;;6216301;23;20387;-70
2024/01/21 06:43:43;;;;;;;14.70;9.53;;;;;;;;;;6216217;23;20379;-70
2024/01/21 06:46:09;;;;;;;13.00;9.77;;;;;;;;;;6215748;23;20382;-69
2024/01/21 06:48:35;;;;;;;14.47;10.30;;;;;;;;;;6216441;23;20402;-70
2024/01/21 06:51:09;;;;;;;13.17;9.77;;;;;;;;;;6216265;23;20386;-70
2024/01/21 06:53:35;;;;;;;10.30;8.53;;;;;;;;;;6216100;23;20352;-69
2024/01/21 06:56:06;;;;;;;10.70;8.83;;;;;;;;;;6215667;23;20482;-70
2024/01/21 06:58:32;;;;;;;9.67;8.67;;;;;;;;;;6216103;23;20462;-70
2024/01/21 07:00:59;;;;;;;8.73;7.90;;;;;;;;;;6188785;23;20443;-70
2024/01/21 07:03:25;;;;;;;8.83;7.93;;;;;;;;;;6215955;23;20471;-70
2024/01/21 07:05:51;;;;;;;10.97;8.23;;;;;;;;;;6215628;23;20853;-69
2024/01/21 07:08:17;;;;;;;10.93;7.93;;;;;;;;;;6216006;23;20837;-69
2024/01/21 07:10:43;;;;;;;8.10;7.37;;;;;;;;;;6215973;23;20403;-70
2024/01/21 07:13:09;;;;;;;7.40;6.70;;;;;;;;;;6215915;23;20367;-70
2024/01/21 07:15:35;;;;;;;8.90;6.93;;;;;;;;;;6215806;23;20501;-70
2024/01/21 07:18:01;;;;;;;8.27;6.57;;;;;;;;;;6215443;23;20379;-70
2024/01/21 07:20:28;;;;;;;7.20;6.53;;;;;;;;;;6215610;23;20375;-70
2024/01/21 07:22:55;;;;;;;7.90;7.20;;;;;;;;;;6215532;23;20707;-70
2024/01/21 07:25:21;;;;;;;11.70;7.30;;;;;;;;;;6215476;23;20403;-69
2024/01/21 07:27:48;;;;;;;11.50;8.80;;;;;;;;;;6215459;23;20367;-71
2024/01/21 07:30:14;;;;;;;15.70;10.80;;;;;;;;;;6215801;23;20370;-71
2024/01/21 07:32:41;;;;;;;14.10;9.73;;;;;;;;;;6213875;23;20735;-69
2024/01/21 07:35:10;;;;;;;13.07;10.80;;;;;;;;;;6215471;23;20384;-69
2024/01/21 07:37:37;;;;;;;9.23;8.30;;;;;;;;;;6215432;23;20395;-69
2024/01/21 07:40:04;;;;;;;7.77;7.10;;;;;;;;;;6216047;23;20375;-69
2024/01/21 07:42:30;;;;;;;14.77;11.23;;;;;;;;;;6215605;23;20387;-69
2024/01/21 07:44:56;;;;;;;10.17;9.10;;;;;;;;;;6215158;23;20379;-70
2024/01/21 07:47:22;;;;;;;10.07;8.23;;;;;;;;;;6215183;23;20394;-70
2024/01/21 07:49:48;;;;;;;9.27;8.33;;;;;;;;;;6215342;23;20402;-69
2024/01/21 07:52:16;;;;;;;8.97;7.53;;;;;;;;;;6215253;23;20410;-69
2024/01/21 07:54:42;;;;;;;9.03;7.93;;;;;;;;;;6213955;23;20371;-69
2024/01/21 07:57:08;;;;;;;7.87;6.63;;;;;;;;;;6215292;23;20438;-69
2024/01/21 07:59:34;;;;;;;5.87;5.57;;;;;;;;;;6214926;23;20433;-69
2024/01/21 08:02:00;;;;;;;7.20;6.33;;;;;;;;;;6215518;23;20460;-70
2024/01/21 08:04:26;;;;;;;7.13;6.43;;;;;;;;;;6188570;23;20873;-70
2024/01/21 08:06:52;;;;;;;6.90;6.20;;;;;;;;;;6215579;23;20379;-70
2024/01/21 08:09:19;;;;;;;6.80;6.17;;;;;;;;;;6215614;23;20414;-69
2024/01/21 08:11:45;;;;;;;7.77;6.97;;;;;;;;;;6188461;23;20755;-69
2024/01/21 08:14:11;;;;;;;8.27;7.57;;;;;;;;;;6215913;23;20394;-70
2024/01/21 08:16:37;;;;;;;7.90;7.07;;;;;;;;;;6215289;23;20596;-70
2024/01/21 08:19:06;;;;;;;33.50;20.33;;;;;;;;;;6215234;23;20371;-69
2024/01/21 08:21:32;;;;;;;41.40;23.37;;;;;;;;;;6215205;23;20469;-69
2024/01/21 08:23:59;;;;;;;33.17;19.80;;;;;;;;;;6214698;23;20446;-69
2024/01/21 08:26:25;;;;;;;26.40;18.10;;;;;;;;;;6215089;23;20402;-69
2024/01/21 08:28:51;;;;;;;17.13;13.10;;;;;;;;;;6215052;23;20363;-70
2024/01/21 08:31:17;;;;;;;12.97;10.40;;;;;;;;;;6215134;23;20387;-69
2024/01/21 08:33:43;;;;;;;13.40;10.03;;;;;;;;;;6215168;23;20374;-69
2024/01/21 08:36:09;;;;;;;12.60;9.00;;;;;;;;;;6213086;23;20828;-69
2024/01/21 08:38:36;;;;;;;14.20;11.67;;;;;;;;;;6189134;23;20398;-72
2024/01/21 08:41:02;;;;;;;10.87;9.80;;;;;;;;;;6215568;23;20383;-69
2024/01/21 08:43:28;;;;;;;14.55;12.20;;;;;;;;;;6214707;23;20370;-70
2024/01/21 08:45:54;;;;;;;12.33;8.77;;;;;;;;;;6215183;23;20156;-69
2024/01/21 08:48:20;;;;;;;8.17;7.20;;;;;;;;;;6216181;23;20747;-69
2024/01/21 08:50:46;;;;;;;8.07;7.30;;;;;;;;;;6216943;23;20485;-69
2024/01/21 08:53:12;;;;;;;7.53;6.83;;;;;;;;;;6216605;23;20863;-69
2024/01/21 08:55:38;;;;;;;6.83;6.33;;;;;;;;;;6216476;23;20908;-69
2024/01/21 08:58:04;;;;;;;15.50;11.10;;;;;;;;;;6216620;23;20706;-69
2024/01/21 09:00:31;;;;;;;24.33;15.40;;;;;;;;;;6216169;23;20431;-69
2024/01/21 09:02:57;;;;;;;33.27;19.23;;;;;;;;;;6190676;23;20379;-69
2024/01/21 09:05:23;;;;;;;24.00;15.80;;;;;;;;;;6216707;23;20379;-69
2024/01/21 09:07:49;;;;;;;47.80;26.53;;;;;;;;;;6216695;23;20376;-69
2024/01/21 09:10:15;;;;;;;30.63;21.23;;;;;;;;;;6215437;23;20915;-70
2024/01/21 09:12:41;;;;;;;36.47;20.97;;;;;;;;;;6216704;23;20375;-70
2024/01/21 09:15:07;;;;;;;64.80;36.50;;;;;;;;;;6216143;23;20499;-69
2024/01/21 09:17:33;;;;;;;38.00;22.70;;;;;;;;;;6216451;23;20396;-67
2024/01/21 09:19:59;;;;;;;33.00;19.10;;;;;;;;;;6216699;23;20442;-69
2024/01/21 09:22:25;;;;;;;31.40;19.00;;;;;;;;;;6216509;23;20379;-69
2024/01/21 09:24:51;;;;;;;30.20;16.83;;;;;;;;;;6216963;23;20407;-69
2024/01/21 09:27:17;;;;;;;20.67;13.87;;;;;;;;;;6214818;23;20834;-69
2024/01/21 09:29:43;;;;;;;18.50;12.53;;;;;;;;;;6216581;23;20390;-69
2024/01/21 09:32:11;;;;;;;17.03;10.90;;;;;;;;;;6216543;23;20462;-69
2024/01/21 09:34:39;;;;;;;16.27;12.13;;;;;;;;;;6214933;23;20400;-69
2024/01/21 09:37:05;;;;;;;14.87;12.77;;;;;;;;;;6216361;23;20477;-69
2024/01/21 09:39:31;;;;;;;5.87;5.57;;;;;;;;;;6216328;23;20471;-69
2024/01/21 09:41:58;;;;;;;5.73;5.33;;;;;;;;;;6189611;23;20420;-69
2024/01/21 09:44:27;;;;;;;7.07;5.70;;;;;;;;;;6216907;23;20425;-69
2024/01/21 09:46:54;;;;;;;4.50;3.90;;;;;;;;;;6216410;23;20375;-69
2024/01/21 09:49:21;;;;;;;4.30;3.90;;;;;;;;;;6216659;23;20381;-69
2024/01/21 09:51:47;;;;;;;12.37;7.40;;;;;;;;;;6189711;23;20494;-69
2024/01/21 09:54:14;;;;;;;21.10;11.73;;;;;;;;;;6190286;23;20387;-69
2024/01/21 09:56:41;;;;;;;31.97;28.70;;;;;;;;;;6216130;23;20439;-69
2024/01/21 09:59:08;;;;;;;7.00;6.30;;;;;;;;;;6215487;23;20423;-69
2024/01/21 10:01:36;;;;;;;9.23;5.70;;;;;;;;;;6189541;23;20395;-69
2024/01/21 10:04:03;;;;;;;3.93;3.63;;;;;;;;;;6216748;23;20838;-69
2024/01/21 10:06:29;;;;;;;1.83;1.83;;;;;;;;;;6216148;23;20884;-69
2024/01/21 10:09:10;;;;;;;2.40;2.03;;;;;;;;;;6189655;23;20490;-69
2024/01/21 10:11:36;;;;;;;1.97;1.70;;;;;;;;;;6215896;23;20367;-69
2024/01/21 10:14:02;;;;;;;3.13;2.77;;;;;;;;;;6215997;23;20391;-69
2024/01/21 10:16:28;;;;;;;2.47;2.37;;;;;;;;;;6216020;23;20427;-69
2024/01/21 10:18:54;;;;;;;1.57;1.57;;;;;;;;;;6216640;23;20371;-69
2024/01/21 10:21:21;;;;;;;1.20;1.20;;;;;;;;;;6215943;23;20444;-69
2024/01/21 10:23:47;;;;;;;1.77;1.77;;;;;;;;;;6216712;23;20421;-68
2024/01/21 10:26:13;;;;;;;3.43;3.33;;;;;;;;;;6216492;23;20386;-69
2024/01/21 10:28:40;;;;;;;1.37;1.20;;;;;;;;;;6215620;23;20458;-69
2024/01/21 10:31:09;;;;;;;9.83;7.53;;;;;;;;;;6188775;23;20395;-69
2024/01/21 10:33:35;;;;;;;11.70;7.60;;;;;;;;;;6215893;23;20888;-69
2024/01/21 10:36:03;;;;;;;13.33;8.33;;;;;;;;;;6215483;23;20408;-69
2024/01/21 10:38:30;;;;;;;1.90;1.83;;;;;;;;;;6189019;23;20405;-71
2024/01/21 10:40:56;;;;;;;3.90;3.60;;;;;;;;;;6215798;23;20371;-70
2024/01/21 10:43:22;;;;;;;2.70;2.50;;;;;;;;;;6215723;23;20379;-69
2024/01/21 10:45:49;;;;;;;4.03;1.97;;;;;;;;;;6215700;23;20375;-68
2024/01/21 10:48:21;;;;;;;1.00;1.00;;;;;;;;;;6216091;23;20792;-68
2024/01/21 10:50:51;;;;;;;9.00;5.87;;;;;;;;;;6188527;23;20470;-69
2024/01/21 10:53:17;;;;;;;4.37;4.13;;;;;;;;;;6215553;23;20367;-69
2024/01/21 10:55:44;;;;;;;3.17;2.97;;;;;;;;;;6216231;23;20465;-69
2024/01/21 10:58:11;;;;;;;3.23;3.13;;;;;;;;;;6216225;23;20386;-70
2024/01/21 11:00:37;;;;;;;1.10;1.10;;;;;;;;;;6215313;23;20430;-70
2024/01/21 11:03:25;;;;;;;2.97;2.77;;;;;;;;;;6216031;23;20380;-70
2024/01/21 11:05:59;;;;;;;3.10;2.90;;;;;;;;;;6215669;23;20372;-70
2024/01/21 11:08:26;;;;;;;5.77;5.00;;;;;;;;;;6215865;23;20367;-70
2024/01/21 11:10:52;;;;;;;5.10;4.60;;;;;;;;;;6215503;23;20483;-69
2024/01/21 11:13:39;;;;;;;1.20;1.20;;;;;;;;;;6215510;23;20750;-70
2024/01/21 11:16:06;;;;;;;4.40;4.00;;;;;;;;;;6215164;23;20936;-70
2024/01/21 11:18:32;;;;;;;3.03;2.83;;;;;;;;;;6188631;23;20765;-69
2024/01/21 11:21:01;;;;;;;3.03;2.83;;;;;;;;;;6215994;23;20450;-70
2024/01/21 11:23:28;;;;;;;3.27;2.97;;;;;;;;;;6215376;23;20857;-69
2024/01/21 11:25:54;;;;;;;10.40;4.20;;;;;;;;;;6215352;23;20716;-70
2024/01/21 11:28:30;;;;;;;9.37;6.60;;;;;;;;;;6215604;23;20450;-70
2024/01/21 11:31:03;;;;;;;6.07;4.37;;;;;;;;;;6215811;23;20379;-69
2024/01/21 11:33:29;;;;;;;3.83;3.63;;;;;;;;;;6215274;23;20449;-69
2024/01/21 11:35:56;;;;;;;2.60;2.50;;;;;;;;;;6215162;23;20465;-70
2024/01/21 11:38:23;;;;;;;3.20;3.00;;;;;;;;;;6215229;23;20691;-70
2024/01/21 11:41:00;;;;;;;6.70;2.77;;;;;;;;;;6188402;23;20391;-71
2024/01/21 11:43:26;;;;;;;3.60;3.27;;;;;;;;;;6215119;23;20868;-70
2024/01/21 11:45:52;;;;;;;9.80;5.90;;;;;;;;;;6215676;23;20383;-69
2024/01/21 11:48:18;;;;;;;5.40;5.00;;;;;;;;;;6215125;23;20414;-69
2024/01/21 11:50:44;;;;;;;16.00;8.40;;;;;;;;;;6215557;23;20387;-70
2024/01/21 11:53:10;;;;;;;23.90;12.27;;;;;;;;;;6215227;23;20375;-71
2024/01/21 11:55:36;;;;;;;11.73;7.00;;;;;;;;;;6215521;23;20486;-71
2024/01/21 11:58:02;;;;;;;21.23;12.07;;;;;;;;;;6214017;23;20396;-70
2024/01/21 12:00:28;;;;;;;22.97;14.77;;;;;;;;;;6215194;23;20433;-70
2024/01/21 12:02:54;;;;;;;15.80;7.73;;;;;;;;;;6213154;23;20419;-69
2024/01/21 12:05:20;;;;;;;19.47;11.30;;;;;;;;;;6215180;23;20367;-69
2024/01/21 12:07:46;;;;;;;25.77;16.53;;;;;;;;;;6213840;23;20383;-69
2024/01/21 12:10:13;;;;;;;33.57;12.00;;;;;;;;;;6214989;23;20376;-69
2024/01/21 12:12:39;;;;;;;6.20;5.70;;;;;;;;;;6215312;23;20437;-69
2024/01/21 12:15:06;;;;;;;19.53;11.87;;;;;;;;;;6215450;23;20414;-70
2024/01/21 12:17:32;;;;;;;23.30;6.67;;;;;;;;;;6215445;23;20545;-70
2024/01/21 12:19:58;;;;;;;35.33;19.03;;;;;;;;;;6215573;23;20462;-70
2024/01/21 12:22:37;;;;;;;4.73;4.50;;;;;;;;;;6215614;23;20387;-70
2024/01/21 12:25:03;;;;;;;10.57;9.37;;;;;;;;;;6216944;23;20385;-70
2024/01/21 12:27:29;;;;;;;7.73;6.93;;;;;;;;;;6217078;23;20446;-69
2024/01/21 12:29:55;;;;;;;5.37;5.00;;;;;;;;;;6217377;23;20375;-69
2024/01/21 12:32:22;;;;;;;12.83;7.17;;;;;;;;;;6217001;23;20378;-69
2024/01/21 12:34:48;;;;;;;8.67;7.07;;;;;;;;;;6217265;23;20382;-69
2024/01/21 12:37:14;;;;;;;30.80;15.23;;;;;;;;;;6217254;23;20431;-68
2024/01/21 12:39:40;;;;;;;7.50;5.57;;;;;;;;;;6218216;23;20375;-70
2024/01/21 12:42:06;;;;;;;4.63;4.30;;;;;;;;;;6217189;23;20375;-69
2024/01/21 12:44:32;;;;;;;14.73;9.50;;;;;;;;;;6216901;23;20407;-69
2024/01/21 12:46:58;;;;;;;8.23;5.77;;;;;;;;;;6216940;23;20379;-69
2024/01/21 12:49:24;;;;;;;2.87;2.77;;;;;;;;;;6217287;23;20397;-69
2024/01/21 12:51:50;;;;;;;14.07;6.07;;;;;;;;;;6216810;23;20398;-69
2024/01/21 12:54:16;;;;;;;6.30;3.07;;;;;;;;;;6218027;23;20375;-69
2024/01/21 12:56:42;;;;;;;3.40;3.20;;;;;;;;;;6217884;23;20438;-69
2024/01/21 12:59:08;;;;;;;7.33;5.50;;;;;;;;;;6216885;23;20488;-68
2024/01/21 13:01:35;;;;;;;2.43;2.17;;;;;;;;;;6191406;23;20360;-69
2024/01/21 13:04:01;;;;;;;6.20;3.60;;;;;;;;;;6216790;23;20403;-69
2024/01/21 13:06:27;;;;;;;11.63;4.60;;;;;;;;;;6216919;23;20851;-69
2024/01/21 13:08:53;;;;;;;4.63;4.30;;;;;;;;;;6217584;23;20387;-69
2024/01/21 13:11:20;;;;;;;3.37;3.07;;;;;;;;;;6216743;23;20466;-69
2024/01/21 13:13:46;;;;;;;3.83;3.23;;;;;;;;;;6216176;23;20834;-69
2024/01/21 13:16:12;;;;;;;5.87;4.13;;;;;;;;;;6216570;23;20441;-69
2024/01/21 13:18:38;;;;;;;10.93;6.93;;;;;;;;;;6217163;23;20720;-69
2024/01/21 13:24:09;;;;;;;2.60;2.20;;;;;;;;;;6216577;23;20504;-69
2024/01/21 13:26:40;;;;;;;2.63;2.43;;;;;;;;;;6216193;23;20383;-69
2024/01/21 13:31:33;;;;;;;2.23;2.13;;;;;;;;;;6217124;23;20914;-69
2024/01/21 13:34:03;;;;;;;4.97;2.23;;;;;;;;;;6216158;23;20858;-69
2024/01/21 13:36:29;;;;;;;7.27;2.93;;;;;;;;;;6216351;23;20904;-69
2024/01/21 13:38:56;;;;;;;9.20;2.47;;;;;;;;;;6189756;23;20774;-68
2024/01/21 13:41:22;;;;;;;1.90;1.80;;;;;;;;;;6189430;23;20884;-68
2024/01/21 13:43:48;;;;;;;8.90;2.37;;;;;;;;;;6216720;23;20694;-68
2024/01/21 13:46:15;;;;;;;2.30;2.20;;;;;;;;;;6216352;23;20410;-68
2024/01/21 13:48:41;;;;;;;2.57;2.27;;;;;;;;;;6216497;23;20467;-69
2024/01/21 13:51:09;;;;;;;6.93;2.10;;;;;;;;;;6216379;23;20375;-68
2024/01/21 13:53:36;;;;;;;9.27;3.80;;;;;;;;;;6189683;23;20418;-69
2024/01/21 13:56:01;;;;;;;5.10;2.60;;;;;;;;;;6216080;23;20481;-68
2024/01/21 13:58:27;;;;;;;9.40;4.17;;;;;;;;;;6216419;23;20371;-69
2024/01/21 14:00:53;;;;;;;2.67;2.47;;;;;;;;;;6189149;23;20446;-69
2024/01/21 14:03:19;;;;;;;8.03;2.03;;;;;;;;;;6216532;23;20383;-69
2024/01/21 14:05:45;;;;;;;6.30;2.63;;;;;;;;;;6216710;23;20843;-69
2024/01/21 14:08:11;;;;;;;3.00;2.33;;;;;;;;;;6216101;23;20474;-69
2024/01/21 14:10:37;;;;;;;4.60;3.43;;;;;;;;;;6217374;23;20387;-69
2024/01/21 14:13:03;;;;;;;7.70;2.83;;;;;;;;;;6216784;23;20446;-69
2024/01/21 14:15:29;;;;;;;6.40;2.90;;;;;;;;;;6215908;23;20451;-68
2024/01/21 14:17:55;;;;;;;3.57;3.37;;;;;;;;;;6216112;23;20435;-68
2024/01/21 14:20:21;;;;;;;2.03;1.93;;;;;;;;;;6216375;23;20372;-69
2024/01/21 14:22:47;;;;;;;3.57;1.80;;;;;;;;;;6215997;23;20379;-69
2024/01/21 14:25:35;;;;;;;22.03;3.83;;;;;;;;;;6216355;23;20462;-68
2024/01/21 14:28:01;;;;;;;2.87;1.40;;;;;;;;;;6216293;23;20390;-68
2024/01/21 14:30:31;;;;;;;3.00;1.87;;;;;;;;;;6216958;23;20375;-68